Time;durP1;ratioP1;P1;durP2;ratioP2;P2;SDS_P1;SDS_P2;PMS_P1;PMS_P2;Temp;Humidity;BMP_temperature;BMP_pressure;BME280_temperature;BME280_humidity;BME280_pressure;Samples;Min_cycle;Max_cycle;Signal;HPM_P1;HPM_P2
2022/09/08 00:02:14;;;;;;;9.27;3.13;;;;;;;24.31;36.31;100762.63;5030487;28;97168;-65
2022/09/08 00:04:40;;;;;;;7.03;3.85;;;;;;;24.34;36.35;100773.16;5030127;27;99037;-65
2022/09/08 00:07:09;;;;;;;5.35;3.00;;;;;;;24.23;36.42;100766.88;5032395;27;100953;-66
2022/09/08 00:09:35;;;;;;;5.38;3.78;;;;;;;24.26;36.36;100759.50;5024403;28;97142;-66
2022/09/08 00:12:02;;;;;;;7.03;3.13;;;;;;;24.23;36.25;100766.88;5031114;28;96934;-66
2022/09/08 00:14:33;;;;;;;10.35;3.67;;;;;;;24.32;36.16;100758.94;5029469;28;98964;-66
2022/09/08 00:16:59;;;;;;;5.63;3.35;;;;;;;24.31;36.32;100754.53;5030301;27;97993;-65
2022/09/08 00:19:26;;;;;;;8.57;3.42;;;;;;;24.25;36.19;100758.66;5032495;27;98799;-66
2022/09/08 00:21:54;;;;;;;8.65;3.78;;;;;;;24.30;36.18;100760.91;5030550;27;96867;-66
2022/09/08 00:24:21;;;;;;;9.57;4.13;;;;;;;24.25;36.12;100757.78;5030841;28;99149;-66
2022/09/08 00:26:47;;;;;;;7.45;3.33;;;;;;;23.96;36.55;100763.16;5030736;28;99996;-66
2022/09/08 00:29:16;;;;;;;6.15;3.38;;;;;;;24.17;36.27;100756.63;5031669;28;96866;-65
2022/09/08 00:31:44;;;;;;;10.68;3.47;;;;;;;24.04;36.26;100749.78;5031514;27;96815;-66
2022/09/08 00:34:10;;;;;;;15.27;4.00;;;;;;;24.03;36.51;100757.03;5031596;27;99012;-65
2022/09/08 00:36:38;;;;;;;15.88;3.83;;;;;;;23.93;36.51;100745.38;5028196;28;98876;-66
2022/09/08 00:39:05;;;;;;;8.57;2.95;;;;;;;24.02;35.98;100755.34;5028017;27;97795;-67
2022/09/08 00:41:33;;;;;;;11.15;3.15;;;;;;;23.93;36.07;100756.19;5032579;28;97013;-66
2022/09/08 00:44:01;;;;;;;8.60;3.20;;;;;;;24.02;36.01;100758.06;5028244;28;99157;-66
2022/09/08 00:46:33;;;;;;;8.80;3.42;;;;;;;24.00;36.39;100757.34;5031665;28;99651;-66
2022/09/08 00:49:07;;;;;;;7.10;3.03;;;;;;;23.91;36.22;100763.56;5030536;28;97136;-66
2022/09/08 00:51:41;;;;;;;11.65;3.42;;;;;;;23.86;36.18;100755.03;5030144;27;96816;-66
2022/09/08 00:54:09;;;;;;;11.07;3.45;;;;;;;23.91;36.01;100750.06;5030804;27;99081;-66
2022/09/08 00:56:36;;;;;;;10.57;3.47;;;;;;;23.94;36.31;100744.41;5028181;27;98738;-66
2022/09/08 00:59:03;;;;;;;13.05;3.95;;;;;;;24.07;36.03;100734.19;5031286;28;98485;-66
2022/09/08 01:01:32;;;;;;;7.55;3.40;;;;;;;23.96;35.98;100733.47;5032697;27;96944;-66
2022/09/08 01:03:59;;;;;;;6.28;3.10;;;;;;;24.01;35.84;100740.16;5030625;27;99228;-66
2022/09/08 01:15:01;;;;;;;12.15;3.60;;;;;;;23.77;35.68;100728.88;5027100;28;97270;-66
2022/09/08 01:17:31;;;;;;;7.88;3.00;;;;;;;23.69;35.98;100734.13;5028582;28;98827;-65
2022/09/08 01:20:01;;;;;;;6.70;3.47;;;;;;;23.68;36.08;100732.44;5027600;27;97081;-65
2022/09/08 01:22:48;;;;;;;7.68;3.15;;;;;;;23.55;36.29;100731.81;5030562;27;97480;-66
2022/09/08 01:25:32;;;;;;;6.30;3.50;;;;;;;23.37;36.29;100732.44;5029646;28;98227;-65
2022/09/08 01:28:07;;;;;;;8.75;3.60;;;;;;;23.47;36.41;100737.00;5029391;28;97674;-65
2022/09/08 01:30:35;;;;;;;9.05;3.42;;;;;;;23.54;36.02;100738.19;5026890;28;96844;-65
2022/09/08 01:33:04;;;;;;;8.32;3.08;;;;;;;23.44;36.21;100735.44;5028563;28;96939;-65
2022/09/08 01:35:33;;;;;;;4.75;2.90;;;;;;;23.55;35.87;100742.59;5026472;28;99218;-66
2022/09/08 01:38:00;;;;;;;7.32;3.92;;;;;;;23.60;35.87;100743.03;5028790;28;98808;-65
2022/09/08 01:40:27;;;;;;;11.38;2.75;;;;;;;23.58;35.78;100739.63;5028861;28;96750;-66
2022/09/08 01:42:53;;;;;;;8.48;3.15;;;;;;;23.53;35.89;100741.88;5031048;27;96834;-66
2022/09/08 01:45:21;;;;;;;10.60;2.53;;;;;;;23.71;35.74;100742.91;5029831;28;100016;-66
2022/09/08 01:47:50;;;;;;;11.75;3.17;;;;;;;23.63;35.90;100750.88;5024365;28;99122;-66
2022/09/08 01:50:16;;;;;;;7.07;3.08;;;;;;;23.79;35.25;100748.47;5026693;28;97223;-67
2022/09/08 01:52:46;;;;;;;5.80;3.30;;;;;;;23.71;35.15;100738.38;5027676;27;97362;-66
2022/09/08 01:55:13;;;;;;;7.18;3.13;;;;;;;23.82;35.23;100740.13;5028680;28;98881;-66
2022/09/08 01:57:39;;;;;;;6.88;3.58;;;;;;;23.81;35.20;100731.19;5028353;27;98983;-66
2022/09/08 02:00:09;;;;;;;6.38;3.20;;;;;;;;;;5027364;28;97067;-67
2022/09/08 02:02:40;;;;;;;9.90;3.08;;;;;;;23.89;35.05;100719.69;5027903;27;96711;-67
2022/09/08 02:05:08;;;;;;;6.55;3.00;;;;;;;23.70;35.26;100708.84;5030137;28;100361;-66
2022/09/08 02:07:36;;;;;;;10.70;3.15;;;;;;;23.83;35.05;100706.72;5027311;28;99298;-66
2022/09/08 02:10:08;;;;;;;7.25;3.28;;;;;;;23.76;35.23;100697.50;5029808;28;96832;-66
2022/09/08 02:12:34;;;;;;;9.25;3.35;;;;;;;23.76;35.40;100706.44;5026997;27;97777;-66
2022/09/08 02:15:06;;;;;;;8.55;2.65;;;;;;;23.84;34.78;100705.75;5026181;27;99121;-66
2022/09/08 02:17:32;;;;;;;10.73;3.38;;;;;;;23.70;35.09;100716.94;5029248;27;98092;-66
2022/09/08 02:20:00;;;;;;;6.93;2.85;;;;;;;23.67;35.08;100717.22;5026113;27;96822;-66
2022/09/08 02:22:30;;;;;;;6.93;2.55;;;;;;;23.65;35.03;100719.19;5029130;28;97600;-66
2022/09/08 02:24:57;;;;;;;8.27;2.72;;;;;;;23.70;34.99;100725.03;5030708;28;101685;-65
2022/09/08 02:27:25;;;;;;;12.48;2.72;;;;;;;23.52;35.10;100721.28;5027614;28;98839;-65
2022/09/08 02:29:54;;;;;;;10.50;2.97;;;;;;;23.57;34.81;100714.50;5030396;28;96792;-66
2022/09/08 02:32:20;;;;;;;6.40;2.72;;;;;;;23.44;35.17;100714.72;5028580;28;97046;-66
2022/09/08 02:34:50;;;;;;;13.85;3.80;;;;;;;23.56;34.75;100717.34;5030385;27;98909;-66
2022/09/08 02:37:18;;;;;;;7.13;3.28;;;;;;;23.27;35.11;100711.81;5027036;28;98821;-66
2022/09/08 02:39:44;;;;;;;9.20;3.42;;;;;;;23.32;35.17;100712.25;5027635;28;97473;-66
2022/09/08 02:42:11;;;;;;;8.27;2.65;;;;;;;23.35;34.94;100699.38;5029809;27;96882;-65
2022/09/08 02:44:38;;;;;;;8.25;3.00;;;;;;;23.27;34.78;100688.41;5029270;27;99054;-65
2022/09/08 02:47:04;;;;;;;10.02;3.00;;;;;;;23.28;34.92;100698.22;5026305;28;99389;-65
2022/09/08 02:49:32;;;;;;;6.32;2.67;;;;;;;23.12;35.18;100691.63;5031693;27;96944;-66
2022/09/08 02:51:58;;;;;;;7.78;2.83;;;;;;;23.19;35.02;100690.94;5025181;28;96831;-66
2022/09/08 02:54:26;;;;;;;6.03;2.80;;;;;;;23.32;34.65;100699.63;5029553;28;98871;-66
2022/09/08 02:56:53;;;;;;;12.20;3.00;;;;;;;23.34;34.76;100694.97;5026803;28;97700;-66
2022/09/08 02:59:20;;;;;;;9.80;2.83;;;;;;;23.15;34.97;100688.66;5029562;27;98712;-66
2022/09/08 03:01:48;;;;;;;8.75;2.70;;;;;;;22.99;35.27;100686.47;5029684;27;96901;-65
2022/09/08 03:04:17;;;;;;;5.43;2.80;;;;;;;23.17;34.87;100698.28;5027162;28;100584;-66
2022/09/08 03:06:43;;;;;;;7.07;2.67;;;;;;;23.20;34.69;100697.19;5029249;27;99208;-67
2022/09/08 03:09:15;;;;;;;7.53;2.35;;;;;;;23.14;34.61;100690.50;5028556;27;96963;-66
2022/09/08 03:11:43;;;;;;;9.43;2.90;;;;;;;23.01;34.75;100687.19;5028919;28;96921;-66
2022/09/08 03:14:12;;;;;;;7.63;3.25;;;;;;;23.12;34.67;100681.69;5029599;28;99300;-66
2022/09/08 03:16:39;;;;;;;6.70;2.85;;;;;;;23.01;34.65;100673.72;5029022;27;99158;-66
2022/09/08 03:19:07;;;;;;;12.35;3.30;;;;;;;22.86;34.86;100683.13;5029605;28;98089;-65
2022/09/08 03:21:33;;;;;;;6.25;2.50;;;;;;;22.90;34.73;100666.59;5028567;28;96900;-66
2022/09/08 03:24:00;;;;;;;7.40;2.55;;;;;;;23.00;34.72;100667.47;5029813;27;99683;-65
2022/09/08 03:26:27;;;;;;;6.47;3.22;;;;;;;22.85;34.87;100668.81;5032016;27;99036;-65
2022/09/08 03:28:57;;;;;;;12.60;2.70;;;;;;;22.91;34.74;100659.31;5032330;27;97003;-66
2022/09/08 03:31:25;;;;;;;8.02;2.53;;;;;;;22.75;35.12;100646.38;5032887;27;96930;-65
2022/09/08 03:33:51;;;;;;;9.40;2.40;;;;;;;22.81;34.75;100644.97;5030750;27;98945;-65
2022/09/08 03:36:20;;;;;;;12.50;2.92;;;;;;;22.93;34.71;100646.59;5031919;27;98785;-66
2022/09/08 03:38:47;;;;;;;6.90;2.70;;;;;;;22.53;34.98;100647.34;5031857;27;96864;-65
2022/09/08 03:41:15;;;;;;;5.93;3.47;;;;;;;22.90;34.50;100644.19;5032568;28;97686;-65
2022/09/08 03:43:43;;;;;;;8.23;2.70;;;;;;;22.71;34.74;100644.88;5033372;28;100126;-65
2022/09/08 03:46:11;;;;;;;7.70;3.55;;;;;;;22.70;34.89;100659.38;5029204;27;98794;-66
2022/09/08 03:48:37;;;;;;;10.52;3.28;;;;;;;22.86;34.62;100653.50;5029876;28;98103;-65
2022/09/08 03:51:11;;;;;;;5.88;2.88;;;;;;;22.75;34.78;100657.16;5028042;27;97014;-65
2022/09/08 03:53:38;;;;;;;10.85;2.80;;;;;;;22.82;34.49;100660.16;5028811;27;99211;-65
2022/09/08 03:56:08;;;;;;;5.75;2.38;;;;;;;22.67;34.64;100659.63;5032560;27;99890;-65
2022/09/08 03:58:35;;;;;;;12.88;3.28;;;;;;;22.64;34.81;100666.13;5033261;28;96843;-66
2022/09/08 04:01:02;;;;;;;7.03;3.05;;;;;;;22.75;34.68;100665.22;5032732;28;97084;-66
2022/09/08 04:03:33;;;;;;;5.70;3.13;;;;;;;22.72;34.75;100645.75;5029160;28;102128;-66
2022/09/08 04:06:01;;;;;;;12.93;2.88;;;;;;;22.67;34.93;100652.41;5031196;28;98988;-65
2022/09/08 04:08:30;;;;;;;12.57;3.53;;;;;;;22.66;34.63;100650.69;5029619;28;96986;-64
2022/09/08 04:10:59;;;;;;;8.50;3.05;;;;;;;22.55;34.77;100648.09;5031746;27;97330;-68
2022/09/08 04:13:26;;;;;;;8.48;2.72;;;;;;;22.35;34.80;100640.88;5027884;28;99784;-67
2022/09/08 04:15:55;;;;;;;7.75;2.92;;;;;;;22.25;35.01;100638.09;5028697;28;99622;-65
2022/09/08 04:18:21;;;;;;;8.15;3.75;;;;;;;22.27;35.10;100637.97;5030601;28;96756;-66
2022/09/08 04:21:01;;;;;;;8.50;2.70;;;;;;;22.21;35.17;100630.44;5027687;28;97025;-66
2022/09/08 04:23:28;;;;;;;8.57;3.47;;;;;;;22.12;35.22;100634.75;5029176;28;99297;-66
2022/09/08 04:25:56;;;;;;;6.10;3.00;;;;;;;22.18;35.42;100638.78;5032207;28;98866;-66
2022/09/08 04:28:23;;;;;;;4.65;2.72;;;;;;;22.22;35.07;100632.16;5029842;27;97211;-66
2022/09/08 04:30:49;;;;;;;6.00;2.80;;;;;;;22.24;35.10;100630.19;5033636;27;99749;-66
2022/09/08 04:33:16;;;;;;;13.30;3.35;;;;;;;22.35;34.93;100634.63;5032100;28;99102;-65
2022/09/08 04:35:42;;;;;;;10.52;3.40;;;;;;;22.27;34.97;100624.53;5031168;27;99093;-66
2022/09/08 04:38:10;;;;;;;8.88;3.38;;;;;;;22.24;34.95;100619.41;5025460;28;97313;-65
2022/09/08 04:40:36;;;;;;;7.43;3.20;;;;;;;22.39;34.73;100618.06;5031387;27;97034;-66
2022/09/08 04:43:05;;;;;;;9.57;3.60;;;;;;;22.31;34.94;100615.22;5027825;28;100212;-65
2022/09/08 04:45:32;;;;;;;6.63;3.22;;;;;;;22.42;34.61;100625.03;5021932;28;98970;-65
2022/09/08 04:47:58;;;;;;;11.48;3.28;;;;;;;22.46;34.36;100619.25;5031563;28;97646;-65
2022/09/08 04:50:27;;;;;;;13.90;3.30;;;;;;;22.53;34.29;100619.56;5032240;28;96958;-66
2022/09/08 04:52:57;;;;;;;6.05;2.75;;;;;;;22.37;34.70;100616.53;5031315;28;97824;-65
2022/09/08 04:55:25;;;;;;;10.40;3.08;;;;;;;22.62;34.20;100626.84;5028271;27;98782;-65
2022/09/08 04:57:54;;;;;;;10.38;2.95;;;;;;;22.42;34.43;100625.03;5030278;27;96839;-67
2022/09/08 05:00:20;;;;;;;7.32;3.08;;;;;;;22.52;34.32;100625.94;5032155;27;96912;-66
2022/09/08 05:02:48;;;;;;;6.50;3.22;;;;;;;22.54;34.27;100630.22;5027917;27;98900;-66
2022/09/08 05:05:15;;;;;;;11.45;3.20;;;;;;;22.65;34.09;100618.50;5031210;27;97873;-65
2022/09/08 05:07:41;;;;;;;9.90;3.50;;;;;;;22.63;34.17;100623.19;5021956;28;98523;-66
2022/09/08 05:10:14;;;;;;;8.02;3.42;;;;;;;22.41;34.36;100620.66;5027421;27;97965;-65
2022/09/08 05:12:42;;;;;;;9.32;3.00;;;;;;;22.46;34.23;100629.16;5024166;27;99486;-65
2022/09/08 05:15:09;;;;;;;16.35;3.42;;;;;;;22.32;34.65;100629.53;5024955;27;98872;-64
2022/09/08 05:17:36;;;;;;;7.03;3.47;;;;;;;22.38;34.65;100629.00;5029111;28;98697;-66
2022/09/08 05:20:03;;;;;;;12.32;3.88;;;;;;;22.37;34.68;100627.28;5028408;27;98688;-66
2022/09/08 05:22:30;;;;;;;9.60;3.70;;;;;;;22.33;34.70;100629.38;5026685;28;99034;-65
2022/09/08 05:24:56;;;;;;;7.45;3.30;;;;;;;22.46;34.52;100623.78;5031509;28;99220;-65
2022/09/08 05:27:23;;;;;;;13.95;4.38;;;;;;;22.19;34.78;100630.56;5027857;28;97156;-65
2022/09/08 05:29:51;;;;;;;9.68;3.75;;;;;;;22.31;34.74;100626.00;5025125;28;97077;-64
2022/09/08 05:32:17;;;;;;;8.13;3.33;;;;;;;22.22;34.80;100626.75;5025550;27;100731;-66
2022/09/08 05:34:43;;;;;;;8.35;3.83;;;;;;;21.97;35.22;100622.63;5026996;27;99230;-66
2022/09/08 05:37:10;;;;;;;10.07;3.35;;;;;;;22.16;35.01;100622.78;5030339;27;96806;-66
2022/09/08 05:39:36;;;;;;;10.43;3.20;;;;;;;22.24;34.78;100625.66;5025332;27;96866;-65
2022/09/08 05:42:03;;;;;;;15.07;4.35;;;;;;;22.40;34.66;100635.09;5028347;27;98774;-66
2022/09/08 05:44:29;;;;;;;9.95;3.40;;;;;;;22.51;34.42;100635.84;5027944;27;98960;-66
2022/09/08 05:46:57;;;;;;;14.07;4.10;;;;;;;22.61;34.47;100631.38;5025273;28;96814;-66
2022/09/08 05:49:33;;;;;;;11.15;3.60;;;;;;;22.70;34.49;100627.03;5030945;28;96805;-66
2022/09/08 05:51:59;;;;;;;9.73;3.60;;;;;;;22.69;34.43;100628.03;5025071;28;99000;-66
2022/09/08 05:54:26;;;;;;;10.65;3.42;;;;;;;22.89;34.10;100618.22;5029520;27;98830;-65
2022/09/08 05:56:52;;;;;;;16.75;4.20;;;;;;;22.97;33.93;100621.91;5031654;27;96738;-66
2022/09/08 05:59:19;;;;;;;7.43;3.47;;;;;;;23.14;33.69;100624.97;5029823;28;96841;-65
2022/09/08 06:01:45;;;;;;;30.23;4.15;;;;;;;23.19;33.67;100622.69;5031265;27;97224;-65
2022/09/08 06:04:14;;;;;;;13.90;3.67;;;;;;;22.90;33.82;100628.00;5028630;27;99260;-66
2022/09/08 06:06:41;;;;;;;14.27;4.60;;;;;;;23.19;33.49;100633.47;5026545;28;97095;-65
2022/09/08 06:09:08;;;;;;;17.10;3.95;;;;;;;23.02;33.51;100635.00;5031544;27;96852;-66
2022/09/08 06:11:36;;;;;;;8.82;3.92;;;;;;;23.27;33.24;100639.91;5026393;27;98995;-67
2022/09/08 06:14:03;;;;;;;20.27;3.53;;;;;;;23.02;33.72;100627.78;5022494;27;99109;-68
2022/09/08 06:16:35;;;;;;;10.95;4.05;;;;;;;23.18;33.45;100624.53;5030982;27;96778;-65
2022/09/08 06:19:02;;;;;;;9.48;3.83;;;;;;;23.03;33.70;100612.47;5030792;27;96817;-65
2022/09/08 06:21:32;;;;;;;13.88;3.55;;;;;;;23.09;33.79;100619.13;5031365;27;99333;-65
2022/09/08 06:24:01;;;;;;;9.48;4.13;;;;;;;23.12;33.60;100619.69;5029060;28;98815;-67
2022/09/08 06:26:50;;;;;;;13.30;4.07;;;;;;;23.12;33.59;100617.00;5032015;27;96869;-67
2022/09/08 06:29:24;;;;;;;17.52;4.35;;;;;;;23.08;33.68;100626.38;5032304;27;96663;-66
2022/09/08 06:31:56;;;;;;;13.23;4.25;;;;;;;22.82;34.19;100620.59;5031385;27;98948;-66
2022/09/08 06:34:27;;;;;;;6.88;3.25;;;;;;;23.11;33.78;100625.22;5031495;27;98254;-66
2022/09/08 06:36:58;;;;;;;11.77;3.90;;;;;;;22.84;34.21;100639.34;5026370;27;96775;-66
2022/09/08 06:39:28;;;;;;;9.18;3.85;;;;;;;22.88;34.33;100629.97;5028876;27;96790;-66
2022/09/08 06:41:58;;;;;;;15.40;3.72;;;;;;;23.12;33.93;100626.94;5027711;28;102316;-66
2022/09/08 06:44:34;;;;;;;9.88;4.07;;;;;;;23.17;33.90;100627.41;5019641;27;99501;-65
2022/09/08 06:47:01;;;;;;;21.75;4.15;;;;;;;23.27;33.86;100630.94;5021952;28;96774;-66
2022/09/08 06:49:28;;;;;;;10.95;3.85;;;;;;;23.41;33.73;100619.78;5031684;27;96949;-66
2022/09/08 06:52:02;;;;;;;13.40;4.43;;;;;;;23.10;34.06;100624.41;5023034;27;97078;-65
2022/09/08 06:54:40;;;;;;;20.90;4.13;;;;;;;23.18;33.99;100621.84;5029418;27;101451;-66
2022/09/08 06:57:21;;;;;;;14.30;4.20;;;;;;;23.41;34.04;100620.63;5027848;27;96862;-66
2022/09/08 07:00:01;;;;;;;16.70;4.43;;;;;;;23.33;33.83;100625.84;5035393;27;97776;-66
2022/09/08 07:02:49;;;;;;;14.50;4.50;;;;;;;23.54;33.72;100616.84;5034179;28;99866;-66
2022/09/08 07:05:55;;;;;;;14.05;4.13;;;;;;;23.56;33.53;100612.16;5029352;28;98856;-67
2022/09/08 07:08:42;;;;;;;11.65;4.93;;;;;;;23.62;33.68;100595.41;4970155;28;96790;-67
2022/09/08 07:11:18;;;;;;;14.93;4.57;;;;;;;23.75;33.47;100599.53;5029169;28;99846;-67
2022/09/08 07:13:52;;;;;;;9.80;4.20;;;;;;;23.76;33.69;100600.41;5029801;27;99176;-67
2022/09/08 07:16:26;;;;;;;10.45;4.78;;;;;;;23.74;33.72;100599.69;5028450;27;101703;-68
2022/09/08 07:18:59;;;;;;;7.57;3.90;;;;;;;23.91;33.61;100598.94;5028962;28;97177;-68
2022/09/08 07:21:39;;;;;;;10.73;3.95;;;;;;;23.80;33.99;100599.09;5032773;28;96850;-68
2022/09/08 07:24:12;;;;;;;12.70;4.68;;;;;;;23.77;33.72;100593.97;5029333;27;98925;-67
2022/09/08 07:26:47;;;;;;;10.02;4.63;;;;;;;23.71;33.97;100581.06;5028755;28;99380;-68
2022/09/08 07:29:20;;;;;;;9.93;4.13;;;;;;;23.83;33.93;100579.91;5034503;28;96964;-67
2022/09/08 07:31:51;;;;;;;9.38;4.55;;;;;;;23.98;33.77;100578.47;5028246;27;96790;-67
2022/09/08 07:34:22;;;;;;;8.60;4.05;;;;;;;23.81;34.00;100576.53;5028681;28;99000;-67
2022/09/08 07:36:58;;;;;;;19.70;4.55;;;;;;;24.07;34.04;100593.81;5028627;28;98270;-67
2022/09/08 07:39:37;;;;;;;12.32;4.32;;;;;;;24.25;33.53;100607.47;5033126;27;97198;-67
2022/09/08 07:42:05;;;;;;;15.18;4.70;;;;;;;24.14;33.80;100610.28;5032680;27;96736;-67
2022/09/08 07:44:33;;;;;;;11.80;4.63;;;;;;;24.60;33.38;100598.69;5032743;27;98998;-67
2022/09/08 07:47:28;;;;;;;9.07;4.00;;;;;;;24.63;33.04;100601.09;5029030;27;98207;-67
2022/09/08 07:50:04;;;;;;;49.55;6.47;;;;;;;24.65;33.50;100601.78;5031693;28;96765;-66
2022/09/08 07:52:41;;;;;;;15.32;4.60;;;;;;;24.67;33.19;100596.25;5032762;28;96910;-68
2022/09/08 07:55:20;;;;;;;12.68;4.20;;;;;;;24.54;33.65;100602.00;5032135;28;99086;-67
2022/09/08 07:57:55;;;;;;;10.27;4.68;;;;;;;24.53;33.85;100594.88;5031016;27;98931;-67
2022/09/08 08:00:34;;;;;;;19.35;4.90;;;;;;;24.58;33.72;100601.53;5030417;27;96802;-67
2022/09/08 08:03:24;;;;;;;9.60;4.82;;;;;;;24.69;33.56;100589.69;5015885;28;99527;-68
2022/09/08 08:05:59;;;;;;;20.58;5.13;;;;;;;24.59;34.04;100595.13;5028385;27;99061;-67
2022/09/08 08:08:40;;;;;;;15.85;5.07;;;;;;;24.69;33.72;100595.09;5026625;28;102063;-69
2022/09/08 08:11:16;;;;;;;16.92;5.28;;;;;;;24.62;33.75;100604.78;5025843;27;96795;-68
2022/09/08 08:14:00;;;;;;;17.67;5.05;;;;;;;24.61;34.01;100601.22;5027103;28;97600;-67
2022/09/08 08:16:38;;;;;;;10.85;4.53;;;;;;;24.78;34.02;100596.91;5029114;28;98917;-66
2022/09/08 08:19:22;;;;;;;9.75;4.80;;;;;;;24.89;33.89;100591.31;5027759;27;100870;-66
2022/09/08 08:21:55;;;;;;;12.15;5.00;;;;;;;25.17;33.50;100603.00;5030503;28;96898;-66
2022/09/08 08:24:31;;;;;;;15.68;4.85;;;;;;;25.26;33.26;100590.41;5028011;28;98086;-66
2022/09/08 08:27:03;;;;;;;7.53;4.53;;;;;;;24.88;34.16;100594.13;5028273;28;99277;-67
2022/09/08 08:29:44;;;;;;;15.23;4.70;;;;;;;25.09;33.60;100588.50;5026684;28;98947;-67
2022/09/08 08:32:15;;;;;;;13.18;4.43;;;;;;;25.23;33.38;100586.16;5030541;28;98078;-67
2022/09/08 08:34:47;;;;;;;11.32;4.80;;;;;;;24.89;34.33;100582.34;5024528;28;96874;-67
2022/09/08 08:37:17;;;;;;;16.13;4.97;;;;;;;24.74;34.70;100591.97;5027127;27;97945;-67
2022/09/08 08:39:53;;;;;;;15.85;5.35;;;;;;;24.27;35.76;100593.81;5029676;28;99724;-67
2022/09/08 08:42:43;;;;;;;21.40;4.93;;;;;;;24.23;36.03;100594.09;5021763;27;96896;-67
2022/09/08 08:45:23;;;;;;;15.10;4.72;;;;;;;24.06;36.70;100599.34;5025687;28;96788;-67
2022/09/08 08:48:11;;;;;;;12.05;5.20;;;;;;;23.92;37.58;100592.56;5028556;28;99360;-67
2022/09/08 08:50:53;;;;;;;14.13;5.20;;;;;;;23.91;38.55;100590.00;5027895;28;100560;-70
2022/09/08 08:53:58;;;;;;;15.95;4.53;;;;;;;24.07;37.96;100574.06;5025161;27;97393;-68
2022/09/08 08:56:36;;;;;;;22.73;5.53;;;;;;;24.01;38.60;100567.41;4995492;27;98449;-69
2022/09/08 08:59:27;;;;;;;21.48;5.30;;;;;;;23.87;39.79;100570.56;5027943;28;98091;-68
2022/09/08 09:02:16;;;;;;;19.40;5.45;;;;;;;23.79;40.02;100562.31;5025760;28;98787;-68
2022/09/08 09:04:57;;;;;;;11.20;4.97;;;;;;;23.76;40.62;100562.63;5023911;28;97387;-68
2022/09/08 09:07:44;;;;;;;12.80;5.28;;;;;;;23.76;41.22;100549.13;5029563;28;96844;-68
2022/09/08 09:10:45;;;;;;;16.67;5.57;;;;;;;23.75;41.96;100550.97;5030190;28;99519;-67
2022/09/08 09:13:30;;;;;;;12.93;4.97;;;;;;;23.64;42.77;100553.81;5018469;27;98873;-74
2022/09/08 09:16:16;;;;;;;12.68;5.28;;;;;;;24.12;41.61;100540.25;5025923;27;98457;-72
2022/09/08 09:19:07;;;;;;;10.75;5.22;;;;;;;24.16;41.75;100544.34;5027734;28;97645;-72
2022/09/08 09:21:48;;;;;;;11.73;5.15;;;;;;;24.13;41.22;100527.59;5029706;27;99102;-72
2022/09/08 09:24:24;;;;;;;11.07;5.63;;;;;;;23.94;42.46;100538.44;5027010;28;98940;-71
2022/09/08 09:26:53;;;;;;;17.23;6.20;;;;;;;24.35;41.51;100527.25;5028424;27;96968;-71
2022/09/08 09:29:31;;;;;;;10.85;5.50;;;;;;;24.08;41.07;100529.91;5028331;28;98431;-71
2022/09/08 09:32:41;;;;;;;;;;;;;;;;;;;;;
2022/09/08 09:35:48;;;;;;;23.85;6.28;;;;;;;23.67;43.44;100517.63;5022594;28;127879;-70
2022/09/08 09:38:45;;;;;;;18.10;6.30;;;;;;;23.84;42.41;100519.56;5025850;28;96841;-68
2022/09/08 09:41:35;;;;;;;16.35;6.00;;;;;;;23.82;42.78;100525.13;5025210;27;96934;-68
2022/09/08 09:44:20;;;;;;;13.00;6.32;;;;;;;23.92;42.56;100518.84;5022670;28;98204;-68
2022/09/08 09:47:20;;;;;;;14.43;5.85;;;;;;;24.01;42.92;100504.50;5024743;28;98111;-68
2022/09/08 09:50:18;;;;;;;15.25;6.32;;;;;;;24.10;42.49;100496.34;5018433;28;96861;-68
2022/09/08 09:53:03;;;;;;;12.43;5.70;;;;;;;24.31;42.64;100498.88;5028494;28;96913;-68
2022/09/08 09:55:56;;;;;;;18.52;6.75;;;;;;;24.23;43.22;100498.75;5023838;28;100190;-68
2022/09/08 09:59:03;;;;;;;16.80;6.68;;;;;;;24.10;43.48;100500.88;5025174;28;99210;-71
2022/09/08 10:01:59;;;;;;;19.80;7.63;;;;;;;24.23;43.69;100504.16;5026442;28;97067;-68
2022/09/08 10:05:12;;;;;;;19.27;7.53;;;;;;;24.17;45.82;100502.00;5023304;28;97205;-67
2022/09/08 10:08:20;;;;;;;13.02;5.97;;;;;;;24.10;47.00;100517.94;4966630;28;99563;-67
2022/09/08 10:10:52;;;;;;;;;;;;;;;23.94;48.02;100523.13;4963972;28;98980;-67
2022/09/08 10:13:40;;;;;;;11.32;6.70;;;;;;;23.71;48.95;100533.34;5006581;28;97332;-68
2022/09/08 10:16:18;;;;;;;11.75;6.32;;;;;;;;;;5023438;28;96813;-68
2022/09/08 10:19:09;;;;;;;17.73;5.85;;;;;;;23.30;50.49;100556.03;5024560;28;98601;-68
2022/09/08 10:22:09;;;;;;;25.13;6.25;;;;;;;23.24;49.42;100555.72;5027285;28;99777;-69
2022/09/08 10:25:27;;;;;;;13.18;6.00;;;;;;;23.47;48.00;100559.03;5026656;27;97732;-68
2022/09/08 10:28:25;;;;;;;17.00;6.10;;;;;;;23.31;50.27;100563.13;4939932;28;97519;-67
2022/09/08 10:31:21;;;;;;;17.55;8.45;;;;;;;22.75;51.93;100568.25;5028707;28;98373;-67
2022/09/08 10:34:16;;;;;;;15.82;7.15;;;;;;;23.17;50.55;100576.19;5026092;28;98256;-67
2022/09/08 10:37:00;;;;;;;14.90;7.30;;;;;;;22.99;52.79;100584.06;5024345;28;97378;-67
2022/09/08 10:39:53;;;;;;;18.92;8.07;;;;;;;22.93;53.06;100585.47;5028755;27;96901;-68
2022/09/08 10:42:53;;;;;;;25.55;7.85;;;;;;;22.95;52.98;100596.97;5033329;28;99647;-67
2022/09/08 10:45:36;;;;;;;18.85;8.07;;;;;;;22.65;53.14;100596.94;5030395;28;99370;-67
2022/09/08 10:48:51;;;;;;;17.02;7.63;;;;;;;22.62;53.88;100587.31;5029177;27;97217;-68
2022/09/08 10:51:53;;;;;;;19.25;7.88;;;;;;;22.61;52.96;100564.06;5031808;28;96994;-68
2022/09/08 10:54:42;;;;;;;28.60;9.15;;;;;;;22.91;54.42;100554.25;5006472;27;99203;-68
2022/09/08 10:57:20;;;;;;;22.25;8.88;;;;;;;23.11;54.19;100529.06;5027567;28;98843;-69
2022/09/08 11:00:04;;;;;;;20.70;9.02;;;;;;;23.08;54.03;100523.97;5027308;28;96731;-67
2022/09/08 11:02:39;;;;;;;17.92;9.30;;;;;;;22.35;55.96;100552.03;5031091;28;97988;-68
2022/09/08 11:05:43;;;;;;;18.98;8.10;;;;;;;22.82;55.04;100547.88;5029425;28;99543;-69
2022/09/08 11:09:12;;;;;;;18.38;8.18;;;;;;;22.66;55.16;100544.78;5032988;28;99500;-68
2022/09/08 11:12:27;;;;;;;22.00;8.75;;;;;;;22.78;54.22;100550.94;5030584;27;96974;-68
2022/09/08 11:15:40;;;;;;;21.23;8.98;;;;;;;22.95;54.82;100556.56;5024512;28;97989;-68
2022/09/08 11:18:26;;;;;;;19.38;9.32;;;;;;;23.19;55.34;100556.16;5016040;27;98182;-67
2022/09/08 11:20:56;;;;;;;18.13;9.13;;;;;;;23.20;55.42;100555.19;5022339;28;99277;-69
2022/09/08 11:23:46;;;;;;;16.05;7.95;;;;;;;23.22;54.86;100560.44;5032199;28;97635;-67
2022/09/08 11:26:36;;;;;;;14.15;8.35;;;;;;;22.99;54.41;100549.03;5031237;28;97269;-67
2022/09/08 11:29:10;;;;;;;19.27;9.43;;;;;;;23.45;53.34;100521.41;5026849;28;97842;-69
2022/09/08 11:31:53;;;;;;;17.95;8.93;;;;;;;23.49;54.35;100546.31;5029371;27;99378;-68
2022/09/08 11:34:34;;;;;;;16.80;9.32;;;;;;;23.71;52.24;100538.75;5026336;28;98770;-68
2022/09/08 11:37:18;;;;;;;15.65;9.10;;;;;;;23.61;53.84;100542.47;5029761;28;97911;-68
2022/09/08 11:40:03;;;;;;;17.98;9.23;;;;;;;23.20;55.35;100543.53;5028408;28;100797;-68
2022/09/08 11:42:59;;;;;;;16.80;8.38;;;;;;;23.39;54.76;100536.31;5030298;28;99122;-68
2022/09/08 11:45:40;;;;;;;22.88;10.25;;;;;;;23.56;54.75;100528.56;5026155;27;97644;-68
2022/09/08 11:48:37;;;;;;;19.25;9.45;;;;;;;23.52;54.34;100538.75;5029373;28;97122;-68
2022/09/08 11:51:21;;;;;;;16.23;9.65;;;;;;;23.52;53.88;100521.72;5031007;27;100417;-68
2022/09/08 11:54:09;;;;;;;21.80;11.23;;;;;;;23.33;55.47;100503.69;5023805;28;98163;-69
2022/09/08 11:57:21;;;;;;;18.13;11.60;;;;;;;23.44;53.79;100490.91;5029329;28;96855;-68
2022/09/08 12:00:32;;;;;;;19.08;12.02;;;;;;;23.54;54.99;100495.47;5030214;28;97100;-68
2022/09/08 12:03:35;;;;;;;23.15;10.70;;;;;;;23.48;55.48;100501.44;4976708;28;101254;-68
2022/09/08 12:06:42;;;;;;;21.00;10.77;;;;;;;23.73;54.82;100496.31;5029204;27;98086;-68
2022/09/08 12:09:36;;;;;;;22.77;11.10;;;;;;;23.76;54.40;100489.78;4998514;27;97047;-67
2022/09/08 12:12:17;;;;;;;19.33;10.60;;;;;;;23.99;52.91;100483.03;5030304;28;97351;-68